Speedwell, Virginia
Current Conditions -  °F | °C
As of 6:55 PM on Wednesday 28 Jan 2015 (Local Time) from KMKJ Reporting Station
Clear Clear  
Wind Chill: 23°   Ceiling: Unl
Heat Index: 31°   Visibility: 10mi
Dew Point: 19°   Wind: 8mph
Humidity: 63%   Direction: 260°W
Pressure: 30.25"   Gusts: NA
Location:  36.81°N, 81.17°W
Report Text: KMKJ 282355Z AUTO 26007KT 10SM CLR M01/M07 A3025 RMK AO2 T10081071 10031 21008
Loading
Personal Weather Stations






























Interactive Weather Map New forecast layout! Learn more

10-Day Weather Forecast

Advertisements
Track Severe Weather on mobile